Impacts METAR Board
IDs:

KDTW - Detroit Metro/Wayne, MI, US

Updated at: 1700 UTC 23 Jul 2018
Potential Impact None Slight Moderate High
Time 23/05Z 23/06Z 23/07Z 23/08Z 23/09Z 23/10Z 23/11Z 23/12Z 23/13Z 23/14Z 23/15Z 23/16Z 23/17Z
Temp66 65 64 64 62 61 62 64 67 70 74 74 70
Dewpt57 58 57 58 57 57 57 58 58 58 59 60 62
Altim29.87 29.86 29.86 29.85 29.86 29.87 29.89 29.90 29.91 29.90 29.90 29.91 29.92
VIS8 7 5 6 6 5 4 4 5 7 7 7 7
CIG25 40 24 75 230 230 -- 230 65 60 90 25 25
CoverOVCOVCOVCBKNBKNBKNSCTBKNOVCOVCBKNOVCOVC
FltCatMVFRVFRMVFRVFRVFRMVFRMVFRMVFRMVFRVFRVFRMVFRMVFR
WX----HZHZHZBRHZHZHZ--------
WDir00000000170000130
WSpd0 0 0 0 0 0 0 0 3 3 0 4 5
WGst-- -- -- -- -- -- -- -- -- -- -- -- --
Raw hourly METARs
KDTW 230453Z 00000KT 8SM BKN025 OVC060 19/14 A2987 RMK AO2 SLP111 T01890139 402280178 $
KDTW 230553Z 00000KT 7SM SCT025 OVC040 18/14 A2986 RMK AO2 SLP108 T01830144 10194 20183 58007 $
KDTW 230653Z 00000KT 5SM HZ BKN024 BKN040 OVC150 18/14 A2986 RMK AO2 SLP107 T01780139 $
KDTW 230753Z 00000KT 6SM HZ SCT024 BKN075 BKN150 18/14 A2985 RMK AO2 SLP106 T01780144 $
KDTW 230853Z 00000KT 6SM HZ FEW150 BKN230 17/14 A2986 RMK AO2 SLP109 T01670139 53001 $
KDTW 230953Z 00000KT 5SM BR FEW150 BKN230 16/14 A2987 RMK AO2 SLP113 T01610139 $
KDTW 231053Z 00000KT 4SM HZ FEW150 SCT230 17/14 A2989 RMK AO2 SLP118 VIS SE 2 1/2 T01670139 $
KDTW 231153Z 00000KT 4SM HZ FEW065 SCT150 BKN230 18/14 A2990 RMK AO2 SLP123 70002 T01780144 10200 20161 53013 $
KDTW 231253Z 17003KT 5SM HZ BKN065 OVC150 19/14 A2991 RMK AO2 SLP126 T01940144 $
KDTW 231353Z VRB03KT 7SM OVC060 21/14 A2990 RMK AO2 SLP122 T02110144 $
KDTW 231453Z 00000KT 7SM SCT055 BKN090 23/15 A2990 RMK AO2 SLP120 T02330150 58000 $
KDTW 231553Z VRB04KT 7SM BKN025 OVC050 23/16 A2991 RMK AO2 SLP125 T02330156 $
KDTW 231653Z 13005KT 7SM OVC025 21/17 A2992 RMK AO2 SLP130 T02110167 $



Page loaded:  17:37 UTC  |   10:37 AM Pacific  |   11:37 AM Mountain  |   12:37 PM Central  |   01:37 PM Eastern

 

ADVISORIES

FORECASTS

FORECASTS

OBSERVATIONS

USER TOOLS

ABOUT US